sensor_id;sensor_type;location;lat;lon;timestamp;temperature;humidity
28253;DHT22;15515;45.588;5.276;2022-09-20T00:01:35;14.70;81.40
28253;DHT22;15515;45.588;5.276;2022-09-20T00:04:04;14.70;81.70
28253;DHT22;15515;45.588;5.276;2022-09-20T00:06:33;14.60;81.90
28253;DHT22;15515;45.588;5.276;2022-09-20T00:09:01;14.50;82.00
28253;DHT22;15515;45.588;5.276;2022-09-20T00:11:36;14.50;82.40
28253;DHT22;15515;45.588;5.276;2022-09-20T00:14:05;14.50;82.60
28253;DHT22;15515;45.588;5.276;2022-09-20T00:16:37;14.50;82.50
28253;DHT22;15515;45.588;5.276;2022-09-20T00:19:06;14.50;82.70
28253;DHT22;15515;45.588;5.276;2022-09-20T00:21:34;14.50;82.70
28253;DHT22;15515;45.588;5.276;2022-09-20T00:24:04;14.50;83.00
28253;DHT22;15515;45.588;5.276;2022-09-20T00:26:32;14.50;82.90
28253;DHT22;15515;45.588;5.276;2022-09-20T00:28:59;14.50;83.30
28253;DHT22;15515;45.588;5.276;2022-09-20T00:31:28;14.50;83.10
28253;DHT22;15515;45.588;5.276;2022-09-20T00:33:56;14.50;83.60
28253;DHT22;15515;45.588;5.276;2022-09-20T00:37:03;14.40;83.50
28253;DHT22;15515;45.588;5.276;2022-09-20T00:39:30;14.40;83.70
28253;DHT22;15515;45.588;5.276;2022-09-20T00:41:58;14.40;83.90
28253;DHT22;15515;45.588;5.276;2022-09-20T00:45:01;14.20;84.70
28253;DHT22;15515;45.588;5.276;2022-09-20T00:50:36;14.10;85.50
28253;DHT22;15515;45.588;5.276;2022-09-20T00:55:34;13.80;88.70
28253;DHT22;15515;45.588;5.276;2022-09-20T00:58:07;13.80;89.20
28253;DHT22;15515;45.588;5.276;2022-09-20T01:00:36;13.80;89.40
28253;DHT22;15515;45.588;5.276;2022-09-20T01:03:07;13.50;90.00
28253;DHT22;15515;45.588;5.276;2022-09-20T01:05:38;13.70;90.00
28253;DHT22;15515;45.588;5.276;2022-09-20T01:08:06;13.70;89.50
28253;DHT22;15515;45.588;5.276;2022-09-20T01:10:37;13.70;89.30
28253;DHT22;15515;45.588;5.276;2022-09-20T01:13:04;13.70;89.90
28253;DHT22;15515;45.588;5.276;2022-09-20T01:15:33;13.60;90.10
28253;DHT22;15515;45.588;5.276;2022-09-20T01:18:06;13.50;90.60
28253;DHT22;15515;45.588;5.276;2022-09-20T01:20:56;13.60;90.60
28253;DHT22;15515;45.588;5.276;2022-09-20T01:23:39;13.50;90.60
28253;DHT22;15515;45.588;5.276;2022-09-20T01:29:22;13.40;90.90
28253;DHT22;15515;45.588;5.276;2022-09-20T01:31:59;13.50;90.80
28253;DHT22;15515;45.588;5.276;2022-09-20T01:40:05;13.40;91.20
28253;DHT22;15515;45.588;5.276;2022-09-20T01:51:37;13.30;91.30
28253;DHT22;15515;45.588;5.276;2022-09-20T02:08:21;13.30;91.50
28253;DHT22;15515;45.588;5.276;2022-09-20T02:42:10;12.70;92.80
28253;DHT22;15515;45.588;5.276;2022-09-20T02:47:39;12.80;92.60
28253;DHT22;15515;45.588;5.276;2022-09-20T02:50:48;12.70;92.90
28253;DHT22;15515;45.588;5.276;2022-09-20T03:16:45;12.30;94.20
28253;DHT22;15515;45.588;5.276;2022-09-20T03:33:22;12.10;94.50
28253;DHT22;15515;45.588;5.276;2022-09-20T03:46:45;12.20;94.20
28253;DHT22;15515;45.588;5.276;2022-09-20T03:55:45;12.00;94.70
28253;DHT22;15515;45.588;5.276;2022-09-20T03:58:40;11.90;94.50
28253;DHT22;15515;45.588;5.276;2022-09-20T04:26:39;11.50;96.10
28253;DHT22;15515;45.588;5.276;2022-09-20T04:29:33;11.50;96.40
28253;DHT22;15515;45.588;5.276;2022-09-20T04:32:20;11.50;96.30
28253;DHT22;15515;45.588;5.276;2022-09-20T04:38:28;11.40;96.50
28253;DHT22;15515;45.588;5.276;2022-09-20T04:46:49;11.20;97.10
28253;DHT22;15515;45.588;5.276;2022-09-20T04:55:03;11.10;97.50
28253;DHT22;15515;45.588;5.276;2022-09-20T04:58:08;11.10;97.50
28253;DHT22;15515;45.588;5.276;2022-09-20T05:15:10;11.20;96.50
28253;DHT22;15515;45.588;5.276;2022-09-20T05:23:56;11.50;95.40
28253;DHT22;15515;45.588;5.276;2022-09-20T05:30:03;11.40;95.40
28253;DHT22;15515;45.588;5.276;2022-09-20T05:32:29;11.50;95.30
28253;DHT22;15515;45.588;5.276;2022-09-20T05:35:21;11.40;95.50
28253;DHT22;15515;45.588;5.276;2022-09-20T05:43:32;11.60;95.50
28253;DHT22;15515;45.588;5.276;2022-09-20T05:46:21;11.60;95.30
28253;DHT22;15515;45.588;5.276;2022-09-20T05:55:29;11.50;94.80
28253;DHT22;15515;45.588;5.276;2022-09-20T05:58:27;11.30;95.60
28253;DHT22;15515;45.588;5.276;2022-09-20T06:01:23;11.50;95.80
28253;DHT22;15515;45.588;5.276;2022-09-20T06:12:16;11.90;94.60
28253;DHT22;15515;45.588;5.276;2022-09-20T06:17:33;12.10;94.20
28253;DHT22;15515;45.588;5.276;2022-09-20T06:20:46;12.20;94.90
28253;DHT22;15515;45.588;5.276;2022-09-20T06:23:14;12.40;93.80
28253;DHT22;15515;45.588;5.276;2022-09-20T06:25:50;12.50;94.10
28253;DHT22;15515;45.588;5.276;2022-09-20T06:28:29;12.60;93.90
28253;DHT22;15515;45.588;5.276;2022-09-20T06:30:59;12.70;93.80
28253;DHT22;15515;45.588;5.276;2022-09-20T06:33:28;12.70;93.00
28253;DHT22;15515;45.588;5.276;2022-09-20T06:39:06;12.70;93.50
28253;DHT22;15515;45.588;5.276;2022-09-20T06:41:59;12.90;92.90
28253;DHT22;15515;45.588;5.276;2022-09-20T06:44:27;13.10;92.80
28253;DHT22;15515;45.588;5.276;2022-09-20T06:46:54;13.20;92.60
28253;DHT22;15515;45.588;5.276;2022-09-20T06:49:21;13.40;92.40
28253;DHT22;15515;45.588;5.276;2022-09-20T06:51:49;13.50;92.10
28253;DHT22;15515;45.588;5.276;2022-09-20T06:54:18;13.60;92.00
28253;DHT22;15515;45.588;5.276;2022-09-20T06:56:46;13.70;91.80
28253;DHT22;15515;45.588;5.276;2022-09-20T06:59:14;13.70;91.60
28253;DHT22;15515;45.588;5.276;2022-09-20T07:01:41;13.80;91.70
28253;DHT22;15515;45.588;5.276;2022-09-20T07:04:08;14.00;91.60
28253;DHT22;15515;45.588;5.276;2022-09-20T07:06:36;14.10;91.30
28253;DHT22;15515;45.588;5.276;2022-09-20T07:09:03;14.20;91.10
28253;DHT22;15515;45.588;5.276;2022-09-20T07:11:31;14.30;91.00
28253;DHT22;15515;45.588;5.276;2022-09-20T07:14:00;14.40;90.80
28253;DHT22;15515;45.588;5.276;2022-09-20T07:16:28;14.50;90.40
28253;DHT22;15515;45.588;5.276;2022-09-20T07:18:55;14.60;90.40
28253;DHT22;15515;45.588;5.276;2022-09-20T07:21:22;14.70;90.10
28253;DHT22;15515;45.588;5.276;2022-09-20T07:23:50;14.90;90.00
28253;DHT22;15515;45.588;5.276;2022-09-20T07:26:20;14.90;89.60
28253;DHT22;15515;45.588;5.276;2022-09-20T07:28:48;15.00;88.80
28253;DHT22;15515;45.588;5.276;2022-09-20T07:31:17;15.00;88.40
28253;DHT22;15515;45.588;5.276;2022-09-20T07:33:44;15.10;88.30
28253;DHT22;15515;45.588;5.276;2022-09-20T07:36:12;15.30;88.00
28253;DHT22;15515;45.588;5.276;2022-09-20T07:38:39;15.50;87.30
28253;DHT22;15515;45.588;5.276;2022-09-20T07:41:08;15.70;86.90
28253;DHT22;15515;45.588;5.276;2022-09-20T07:43:36;15.80;85.80
28253;DHT22;15515;45.588;5.276;2022-09-20T07:46:03;16.00;85.50
28253;DHT22;15515;45.588;5.276;2022-09-20T07:48:32;16.10;84.80
28253;DHT22;15515;45.588;5.276;2022-09-20T07:51:09;16.40;84.80
28253;DHT22;15515;45.588;5.276;2022-09-20T07:53:37;16.50;84.00
28253;DHT22;15515;45.588;5.276;2022-09-20T07:56:11;16.70;83.30
28253;DHT22;15515;45.588;5.276;2022-09-20T07:58:39;16.70;82.90
28253;DHT22;15515;45.588;5.276;2022-09-20T08:01:09;16.90;83.90
28253;DHT22;15515;45.588;5.276;2022-09-20T08:03:36;17.40;82.70
28253;DHT22;15515;45.588;5.276;2022-09-20T08:06:08;17.80;81.40
28253;DHT22;15515;45.588;5.276;2022-09-20T08:08:39;18.10;80.10
28253;DHT22;15515;45.588;5.276;2022-09-20T08:11:18;18.40;78.00
28253;DHT22;15515;45.588;5.276;2022-09-20T08:13:48;18.80;76.90
28253;DHT22;15515;45.588;5.276;2022-09-20T08:16:39;18.90;76.30
28253;DHT22;15515;45.588;5.276;2022-09-20T08:19:07;18.90;75.50
28253;DHT22;15515;45.588;5.276;2022-09-20T08:21:35;19.10;75.10
28253;DHT22;15515;45.588;5.276;2022-09-20T08:24:04;19.20;74.60
28253;DHT22;15515;45.588;5.276;2022-09-20T08:26:31;19.20;74.00
28253;DHT22;15515;45.588;5.276;2022-09-20T08:28:58;19.30;74.30
28253;DHT22;15515;45.588;5.276;2022-09-20T08:31:28;19.60;73.20
28253;DHT22;15515;45.588;5.276;2022-09-20T08:34:00;19.70;72.80
28253;DHT22;15515;45.588;5.276;2022-09-20T08:36:32;19.70;73.20
28253;DHT22;15515;45.588;5.276;2022-09-20T08:39:01;19.90;72.80
28253;DHT22;15515;45.588;5.276;2022-09-20T08:42:04;20.20;71.50
28253;DHT22;15515;45.588;5.276;2022-09-20T08:44:57;20.30;71.10
28253;DHT22;15515;45.588;5.276;2022-09-20T08:47:34;20.50;70.70
28253;DHT22;15515;45.588;5.276;2022-09-20T08:50:05;20.50;70.80
28253;DHT22;15515;45.588;5.276;2022-09-20T08:52:39;20.70;70.10
28253;DHT22;15515;45.588;5.276;2022-09-20T08:55:20;20.90;69.10
28253;DHT22;15515;45.588;5.276;2022-09-20T08:57:56;21.00;68.80
28253;DHT22;15515;45.588;5.276;2022-09-20T09:00:33;21.10;69.00
28253;DHT22;15515;45.588;5.276;2022-09-20T09:03:10;21.20;68.40
28253;DHT22;15515;45.588;5.276;2022-09-20T09:05:44;21.40;67.70
28253;DHT22;15515;45.588;5.276;2022-09-20T09:11:12;21.60;67.40
28253;DHT22;15515;45.588;5.276;2022-09-20T09:13:56;21.70;66.90
28253;DHT22;15515;45.588;5.276;2022-09-20T09:16:29;21.80;67.50
28253;DHT22;15515;45.588;5.276;2022-09-20T09:19:26;21.90;67.20
28253;DHT22;15515;45.588;5.276;2022-09-20T09:22:03;22.20;66.00
28253;DHT22;15515;45.588;5.276;2022-09-20T09:24:31;22.10;66.10
28253;DHT22;15515;45.588;5.276;2022-09-20T09:27:16;22.20;65.60
28253;DHT22;15515;45.588;5.276;2022-09-20T09:29:52;21.90;65.50
28253;DHT22;15515;45.588;5.276;2022-09-20T09:32:25;21.80;65.90
28253;DHT22;15515;45.588;5.276;2022-09-20T09:35:27;22.00;65.70
28253;DHT22;15515;45.588;5.276;2022-09-20T09:38:00;21.80;65.40
28253;DHT22;15515;45.588;5.276;2022-09-20T09:40:29;21.70;65.50
28253;DHT22;15515;45.588;5.276;2022-09-20T09:43:02;21.80;65.40
28253;DHT22;15515;45.588;5.276;2022-09-20T09:45:34;21.90;65.30
28253;DHT22;15515;45.588;5.276;2022-09-20T09:48:26;22.00;65.20
28253;DHT22;15515;45.588;5.276;2022-09-20T09:51:13;22.00;65.30
28253;DHT22;15515;45.588;5.276;2022-09-20T09:53:46;22.30;65.30
28253;DHT22;15515;45.588;5.276;2022-09-20T10:04:11;22.70;63.40
28253;DHT22;15515;45.588;5.276;2022-09-20T10:07:17;22.90;63.60
28253;DHT22;15515;45.588;5.276;2022-09-20T10:18:33;23.10;62.30
28253;DHT22;15515;45.588;5.276;2022-09-20T10:24:14;23.30;61.70
28253;DHT22;15515;45.588;5.276;2022-09-20T10:26:56;23.60;61.30
28253;DHT22;15515;45.588;5.276;2022-09-20T10:35:10;23.60;60.30
28253;DHT22;15515;45.588;5.276;2022-09-20T10:37:54;23.70;60.60
28253;DHT22;15515;45.588;5.276;2022-09-20T10:46:56;23.90;59.80
28253;DHT22;15515;45.588;5.276;2022-09-20T10:53:08;24.20;59.10
28253;DHT22;15515;45.588;5.276;2022-09-20T11:01:50;24.80;58.50
28253;DHT22;15515;45.588;5.276;2022-09-20T11:04:11;24.80;58.10
28253;DHT22;15515;45.588;5.276;2022-09-20T11:09:36;25.10;56.90
28253;DHT22;15515;45.588;5.276;2022-09-20T11:15:07;25.20;57.00
28253;DHT22;15515;45.588;5.276;2022-09-20T11:17:42;25.40;56.60
28253;DHT22;15515;45.588;5.276;2022-09-20T11:20:24;25.20;55.80
28253;DHT22;15515;45.588;5.276;2022-09-20T11:23:17;25.50;56.30
28253;DHT22;15515;45.588;5.276;2022-09-20T11:25:53;25.60;55.70
28253;DHT22;15515;45.588;5.276;2022-09-20T11:30:57;25.70;55.30
28253;DHT22;15515;45.588;5.276;2022-09-20T11:33:34;25.70;55.50
28253;DHT22;15515;45.588;5.276;2022-09-20T11:36:09;25.70;54.70
28253;DHT22;15515;45.588;5.276;2022-09-20T11:38:47;25.80;55.00
28253;DHT22;15515;45.588;5.276;2022-09-20T11:41:29;26.00;55.20
28253;DHT22;15515;45.588;5.276;2022-09-20T11:44:10;26.10;54.40
28253;DHT22;15515;45.588;5.276;2022-09-20T11:49:14;26.50;54.50
28253;DHT22;15515;45.588;5.276;2022-09-20T11:57:21;26.80;53.70
28253;DHT22;15515;45.588;5.276;2022-09-20T11:59:54;26.80;53.60
28253;DHT22;15515;45.588;5.276;2022-09-20T12:07:55;27.30;53.90
28253;DHT22;15515;45.588;5.276;2022-09-20T12:10:29;27.40;53.20
28253;DHT22;15515;45.588;5.276;2022-09-20T12:13:17;27.50;52.90
28253;DHT22;15515;45.588;5.276;2022-09-20T12:15:57;27.60;52.60
28253;DHT22;15515;45.588;5.276;2022-09-20T12:21:15;27.60;51.70
28253;DHT22;15515;45.588;5.276;2022-09-20T12:23:45;27.70;51.50
28253;DHT22;15515;45.588;5.276;2022-09-20T12:36:41;28.20;50.50
28253;DHT22;15515;45.588;5.276;2022-09-20T12:42:00;28.30;50.10
28253;DHT22;15515;45.588;5.276;2022-09-20T12:47:18;28.60;50.00
28253;DHT22;15515;45.588;5.276;2022-09-20T13:00:36;28.90;48.60
28253;DHT22;15515;45.588;5.276;2022-09-20T13:05:44;28.50;48.60
28253;DHT22;15515;45.588;5.276;2022-09-20T13:11:15;28.80;48.50
28253;DHT22;15515;45.588;5.276;2022-09-20T13:21:42;29.10;48.30
28253;DHT22;15515;45.588;5.276;2022-09-20T13:24:17;29.20;48.00
28253;DHT22;15515;45.588;5.276;2022-09-20T13:26:48;29.40;48.30
28253;DHT22;15515;45.588;5.276;2022-09-20T13:29:29;29.70;47.40
28253;DHT22;15515;45.588;5.276;2022-09-20T13:32:17;29.60;47.00
28253;DHT22;15515;45.588;5.276;2022-09-20T13:37:30;29.50;48.10
28253;DHT22;15515;45.588;5.276;2022-09-20T13:40:00;29.80;47.70
28253;DHT22;15515;45.588;5.276;2022-09-20T13:42:28;29.70;47.50
28253;DHT22;15515;45.588;5.276;2022-09-20T13:44:57;29.60;47.70
28253;DHT22;15515;45.588;5.276;2022-09-20T13:47:29;29.50;47.80
28253;DHT22;15515;45.588;5.276;2022-09-20T13:50:19;29.40;47.90
28253;DHT22;15515;45.588;5.276;2022-09-20T13:52:53;29.10;48.00
28253;DHT22;15515;45.588;5.276;2022-09-20T13:55:33;29.00;48.10
28253;DHT22;15515;45.588;5.276;2022-09-20T13:58:16;28.90;47.60
28253;DHT22;15515;45.588;5.276;2022-09-20T14:01:06;28.60;48.50
28253;DHT22;15515;45.588;5.276;2022-09-20T14:03:44;27.90;48.90
28253;DHT22;15515;45.588;5.276;2022-09-20T14:06:13;27.40;49.90
28253;DHT22;15515;45.588;5.276;2022-09-20T14:13:49;26.00;52.10
28253;DHT22;15515;45.588;5.276;2022-09-20T14:16:20;25.80;52.80
28253;DHT22;15515;45.588;5.276;2022-09-20T14:18:48;25.60;53.30
28253;DHT22;15515;45.588;5.276;2022-09-20T14:21:35;25.40;53.30
28253;DHT22;15515;45.588;5.276;2022-09-20T14:24:21;25.20;54.00
28253;DHT22;15515;45.588;5.276;2022-09-20T14:27:15;25.00;54.20
28253;DHT22;15515;45.588;5.276;2022-09-20T14:29:50;24.80;54.40
28253;DHT22;15515;45.588;5.276;2022-09-20T14:34:48;24.50;54.80
28253;DHT22;15515;45.588;5.276;2022-09-20T14:40:17;24.30;55.30
28253;DHT22;15515;45.588;5.276;2022-09-20T14:42:46;24.20;55.80
28253;DHT22;15515;45.588;5.276;2022-09-20T14:45:34;24.10;56.00
28253;DHT22;15515;45.588;5.276;2022-09-20T14:53:43;23.90;56.60
28253;DHT22;15515;45.588;5.276;2022-09-20T14:56:13;23.90;56.40
28253;DHT22;15515;45.588;5.276;2022-09-20T15:02:14;23.80;56.90
28253;DHT22;15515;45.588;5.276;2022-09-20T15:04:50;23.60;57.00
28253;DHT22;15515;45.588;5.276;2022-09-20T15:07:19;23.60;57.40
28253;DHT22;15515;45.588;5.276;2022-09-20T15:09:47;23.50;57.40
28253;DHT22;15515;45.588;5.276;2022-09-20T15:12:17;23.40;57.80
28253;DHT22;15515;45.588;5.276;2022-09-20T15:14:46;23.30;58.00
28253;DHT22;15515;45.588;5.276;2022-09-20T15:17:19;23.30;58.80
28253;DHT22;15515;45.588;5.276;2022-09-20T15:19:47;23.20;58.20
28253;DHT22;15515;45.588;5.276;2022-09-20T15:22:15;23.30;58.60
28253;DHT22;15515;45.588;5.276;2022-09-20T15:24:42;23.10;58.00
28253;DHT22;15515;45.588;5.276;2022-09-20T15:27:11;23.10;58.50
28253;DHT22;15515;45.588;5.276;2022-09-20T15:29:38;23.10;58.40
28253;DHT22;15515;45.588;5.276;2022-09-20T15:32:05;23.00;58.10
28253;DHT22;15515;45.588;5.276;2022-09-20T15:34:34;22.90;58.40
28253;DHT22;15515;45.588;5.276;2022-09-20T15:37:01;22.90;58.30
28253;DHT22;15515;45.588;5.276;2022-09-20T15:39:28;22.80;58.30
28253;DHT22;15515;45.588;5.276;2022-09-20T15:41:55;22.70;58.60
28253;DHT22;15515;45.588;5.276;2022-09-20T15:44:22;22.60;59.00
28253;DHT22;15515;45.588;5.276;2022-09-20T15:46:50;22.50;58.60
28253;DHT22;15515;45.588;5.276;2022-09-20T15:49:17;22.40;58.60
28253;DHT22;15515;45.588;5.276;2022-09-20T15:51:44;22.40;58.80
28253;DHT22;15515;45.588;5.276;2022-09-20T15:54:13;22.30;58.90
28253;DHT22;15515;45.588;5.276;2022-09-20T15:56:41;22.20;58.80
28253;DHT22;15515;45.588;5.276;2022-09-20T15:59:09;22.20;58.80
28253;DHT22;15515;45.588;5.276;2022-09-20T16:01:39;22.10;58.90
28253;DHT22;15515;45.588;5.276;2022-09-20T16:04:17;22.10;59.10
28253;DHT22;15515;45.588;5.276;2022-09-20T16:06:48;22.10;59.40
28253;DHT22;15515;45.588;5.276;2022-09-20T16:09:16;22.10;59.70
28253;DHT22;15515;45.588;5.276;2022-09-20T16:11:44;22.10;59.70
28253;DHT22;15515;45.588;5.276;2022-09-20T16:14:11;22.00;59.70
28253;DHT22;15515;45.588;5.276;2022-09-20T16:16:39;22.00;59.90
28253;DHT22;15515;45.588;5.276;2022-09-20T16:19:10;22.00;59.70
28253;DHT22;15515;45.588;5.276;2022-09-20T16:21:51;21.90;59.60
28253;DHT22;15515;45.588;5.276;2022-09-20T16:24:31;21.80;59.60
28253;DHT22;15515;45.588;5.276;2022-09-20T16:27:00;21.80;60.00
28253;DHT22;15515;45.588;5.276;2022-09-20T16:29:29;21.70;59.80
28253;DHT22;15515;45.588;5.276;2022-09-20T16:31:58;21.70;60.10
28253;DHT22;15515;45.588;5.276;2022-09-20T16:34:28;21.70;60.20
28253;DHT22;15515;45.588;5.276;2022-09-20T16:37:01;21.70;60.50
28253;DHT22;15515;45.588;5.276;2022-09-20T16:39:29;21.60;60.30
28253;DHT22;15515;45.588;5.276;2022-09-20T16:42:02;21.50;60.20
28253;DHT22;15515;45.588;5.276;2022-09-20T16:44:31;21.50;60.70
28253;DHT22;15515;45.588;5.276;2022-09-20T16:46:59;21.40;60.30
28253;DHT22;15515;45.588;5.276;2022-09-20T16:49:26;21.40;60.90
28253;DHT22;15515;45.588;5.276;2022-09-20T16:51:54;21.30;60.30
28253;DHT22;15515;45.588;5.276;2022-09-20T16:54:23;21.30;60.60
28253;DHT22;15515;45.588;5.276;2022-09-20T16:56:53;21.30;60.90
28253;DHT22;15515;45.588;5.276;2022-09-20T16:59:20;21.10;60.70
28253;DHT22;15515;45.588;5.276;2022-09-20T17:01:48;21.10;61.00
28253;DHT22;15515;45.588;5.276;2022-09-20T17:04:16;21.10;61.50
28253;DHT22;15515;45.588;5.276;2022-09-20T17:06:44;21.10;61.60
28253;DHT22;15515;45.588;5.276;2022-09-20T17:09:12;21.00;61.80
28253;DHT22;15515;45.588;5.276;2022-09-20T17:11:44;21.00;61.70
28253;DHT22;15515;45.588;5.276;2022-09-20T17:14:13;20.90;61.90
28253;DHT22;15515;45.588;5.276;2022-09-20T17:16:42;20.90;62.20
28253;DHT22;15515;45.588;5.276;2022-09-20T17:19:15;20.90;62.10
28253;DHT22;15515;45.588;5.276;2022-09-20T17:21:45;20.80;62.00
28253;DHT22;15515;45.588;5.276;2022-09-20T17:24:20;20.80;62.20
28253;DHT22;15515;45.588;5.276;2022-09-20T17:26:48;20.70;62.50
28253;DHT22;15515;45.588;5.276;2022-09-20T17:29:17;20.70;63.00
28253;DHT22;15515;45.588;5.276;2022-09-20T17:31:49;20.70;63.10
28253;DHT22;15515;45.588;5.276;2022-09-20T17:34:20;20.60;63.50
28253;DHT22;15515;45.588;5.276;2022-09-20T17:36:48;20.50;63.80
28253;DHT22;15515;45.588;5.276;2022-09-20T17:39:16;20.40;63.70
28253;DHT22;15515;45.588;5.276;2022-09-20T17:41:45;20.40;64.20
28253;DHT22;15515;45.588;5.276;2022-09-20T17:44:13;20.40;64.40
28253;DHT22;15515;45.588;5.276;2022-09-20T17:46:45;20.30;64.20
28253;DHT22;15515;45.588;5.276;2022-09-20T17:49:14;20.30;64.50
28253;DHT22;15515;45.588;5.276;2022-09-20T17:51:43;20.30;64.40
28253;DHT22;15515;45.588;5.276;2022-09-20T17:54:12;20.30;64.40
28253;DHT22;15515;45.588;5.276;2022-09-20T17:56:44;20.10;64.20
28253;DHT22;15515;45.588;5.276;2022-09-20T18:31:08;19.00;67.50
28253;DHT22;15515;45.588;5.276;2022-09-20T18:33:38;18.90;67.70
28253;DHT22;15515;45.588;5.276;2022-09-20T18:41:31;18.90;68.40
28253;DHT22;15515;45.588;5.276;2022-09-20T19:25:13;18.50;69.80
28253;DHT22;15515;45.588;5.276;2022-09-20T19:28:06;18.30;70.10
28253;DHT22;15515;45.588;5.276;2022-09-20T19:30:35;18.20;70.30
28253;DHT22;15515;45.588;5.276;2022-09-20T19:33:02;18.20;70.90
28253;DHT22;15515;45.588;5.276;2022-09-20T19:36:00;18.20;71.00
28253;DHT22;15515;45.588;5.276;2022-09-20T19:39:09;18.20;71.20
28253;DHT22;15515;45.588;5.276;2022-09-20T19:47:00;18.00;71.80
28253;DHT22;15515;45.588;5.276;2022-09-20T19:51:21;18.00;72.00
28253;DHT22;15515;45.588;5.276;2022-09-20T20:32:04;17.60;73.80
28253;DHT22;15515;45.588;5.276;2022-09-20T20:35:03;17.60;74.20
28253;DHT22;15515;45.588;5.276;2022-09-20T20:48:59;17.50;74.60
28253;DHT22;15515;45.588;5.276;2022-09-20T20:52:31;17.30;75.10
28253;DHT22;15515;45.588;5.276;2022-09-20T20:55:12;17.30;75.10
28253;DHT22;15515;45.588;5.276;2022-09-20T20:58:03;17.30;75.20
28253;DHT22;15515;45.588;5.276;2022-09-20T21:00:52;17.10;75.70
28253;DHT22;15515;45.588;5.276;2022-09-20T21:03:26;17.10;75.80
28253;DHT22;15515;45.588;5.276;2022-09-20T21:06:01;17.20;75.80
28253;DHT22;15515;45.588;5.276;2022-09-20T21:08:36;17.20;76.20
28253;DHT22;15515;45.588;5.276;2022-09-20T21:11:29;17.20;76.20
28253;DHT22;15515;45.588;5.276;2022-09-20T21:17:55;17.00;76.30
28253;DHT22;15515;45.588;5.276;2022-09-20T21:20:26;17.00;76.80
28253;DHT22;15515;45.588;5.276;2022-09-20T21:23:20;17.00;76.80
28253;DHT22;15515;45.588;5.276;2022-09-20T21:26:05;16.90;77.00
28253;DHT22;15515;45.588;5.276;2022-09-20T21:35:12;17.00;77.10
28253;DHT22;15515;45.588;5.276;2022-09-20T21:38:31;17.00;77.10
28253;DHT22;15515;45.588;5.276;2022-09-20T21:44:08;16.90;77.00
28253;DHT22;15515;45.588;5.276;2022-09-20T21:47:00;16.90;77.30
28253;DHT22;15515;45.588;5.276;2022-09-20T21:49:34;16.90;77.40
28253;DHT22;15515;45.588;5.276;2022-09-20T21:52:04;16.90;77.30
28253;DHT22;15515;45.588;5.276;2022-09-20T21:54:34;16.80;77.70
28253;DHT22;15515;45.588;5.276;2022-09-20T21:57:21;16.70;77.50
28253;DHT22;15515;45.588;5.276;2022-09-20T21:59:55;16.70;77.90
28253;DHT22;15515;45.588;5.276;2022-09-20T22:02:41;16.60;77.70
28253;DHT22;15515;45.588;5.276;2022-09-20T22:05:13;16.70;78.10
28253;DHT22;15515;45.588;5.276;2022-09-20T22:07:58;16.70;77.90
28253;DHT22;15515;45.588;5.276;2022-09-20T22:10:31;16.70;78.00
28253;DHT22;15515;45.588;5.276;2022-09-20T22:13:27;16.70;78.30
28253;DHT22;15515;45.588;5.276;2022-09-20T22:16:21;16.60;78.20
28253;DHT22;15515;45.588;5.276;2022-09-20T22:18:54;16.60;78.50
28253;DHT22;15515;45.588;5.276;2022-09-20T22:21:47;16.50;78.60
28253;DHT22;15515;45.588;5.276;2022-09-20T22:24:17;16.50;78.80
28253;DHT22;15515;45.588;5.276;2022-09-20T22:26:52;16.50;78.80
28253;DHT22;15515;45.588;5.276;2022-09-20T22:29:26;16.50;78.80
28253;DHT22;15515;45.588;5.276;2022-09-20T22:32:00;16.40;79.00
28253;DHT22;15515;45.588;5.276;2022-09-20T22:34:29;16.40;79.00
28253;DHT22;15515;45.588;5.276;2022-09-20T22:37:03;16.40;79.00
28253;DHT22;15515;45.588;5.276;2022-09-20T22:39:30;16.40;79.00
28253;DHT22;15515;45.588;5.276;2022-09-20T22:42:00;16.40;79.30
28253;DHT22;15515;45.588;5.276;2022-09-20T22:44:30;16.40;79.60
28253;DHT22;15515;45.588;5.276;2022-09-20T22:47:00;16.30;79.30
28253;DHT22;15515;45.588;5.276;2022-09-20T22:49:48;16.30;79.60
28253;DHT22;15515;45.588;5.276;2022-09-20T22:52:23;16.30;79.50
28253;DHT22;15515;45.588;5.276;2022-09-20T22:55:00;16.30;79.50
28253;DHT22;15515;45.588;5.276;2022-09-20T22:57:30;16.20;79.50
28253;DHT22;15515;45.588;5.276;2022-09-20T23:00:00;16.20;79.60
28253;DHT22;15515;45.588;5.276;2022-09-20T23:02:38;16.20;79.80
28253;DHT22;15515;45.588;5.276;2022-09-20T23:05:05;16.20;79.70
28253;DHT22;15515;45.588;5.276;2022-09-20T23:07:42;16.20;79.90
28253;DHT22;15515;45.588;5.276;2022-09-20T23:10:18;16.20;80.10
28253;DHT22;15515;45.588;5.276;2022-09-20T23:12:56;16.00;83.10
28253;DHT22;15515;45.588;5.276;2022-09-20T23:15:25;16.00;83.00
28253;DHT22;15515;45.588;5.276;2022-09-20T23:17:55;16.10;83.70
28253;DHT22;15515;45.588;5.276;2022-09-20T23:20:25;16.00;84.20
28253;DHT22;15515;45.588;5.276;2022-09-20T23:22:55;16.00;84.30
28253;DHT22;15515;45.588;5.276;2022-09-20T23:25:25;16.00;85.20
28253;DHT22;15515;45.588;5.276;2022-09-20T23:27:55;15.80;85.50
28253;DHT22;15515;45.588;5.276;2022-09-20T23:30:25;15.80;85.70
28253;DHT22;15515;45.588;5.276;2022-09-20T23:32:58;15.70;86.40
28253;DHT22;15515;45.588;5.276;2022-09-20T23:35:26;15.70;86.40
28253;DHT22;15515;45.588;5.276;2022-09-20T23:37:55;15.40;87.50
28253;DHT22;15515;45.588;5.276;2022-09-20T23:40:25;15.20;88.30
28253;DHT22;15515;45.588;5.276;2022-09-20T23:42:56;15.10;89.20
28253;DHT22;15515;45.588;5.276;2022-09-20T23:45:29;15.10;89.40
28253;DHT22;15515;45.588;5.276;2022-09-20T23:48:00;15.20;89.20
28253;DHT22;15515;45.588;5.276;2022-09-20T23:50:30;15.20;89.20
28253;DHT22;15515;45.588;5.276;2022-09-20T23:53:00;15.10;90.00
28253;DHT22;15515;45.588;5.276;2022-09-20T23:55:29;15.00;90.10
28253;DHT22;15515;45.588;5.276;2022-09-20T23:58:00;15.00;90.20
